Terminal Aerodrome Forecast
Issued by NWS Cleveland, OH

Home | Current Version | Previous Version | Graphics & Text | Print | Product List | Glossary On
Versions: 1 2 3 4 5 6 7 8 9 10 11 12 13 14 15 16 17 18 19 20 21 22
000
FTUS41 KCLE 272100 AAA
TAFYNG
TAF AMD
KYNG 272100Z 2721/2818 20010KT 3SM -TSRA OVC025CB
      TEMPO 2721/2723 VRB25G35KT 3/4SM TSRA OVC012CB
     FM280000 30008KT 4SM -RA BR OVC040
     FM280600 29006KT P6SM SCT060 BKN100
     FM280900 29006KT 5SM BR SCT005 OVC150
     FM281200 31010KT 5SM BR OVC005
     FM281600 31012G20KT P6SM OVC015=

USA.gov is the U.S. government's official web portal to all federal, state and local government web resources and services.